Bookmark and Share
Track history (hours):
 

MSC Poh Lin

Last reported at 2014-Apr-18 14:30 UTC. Time now 2014-Apr-24 22:18 UTC.
Position N 17°53' W 063°44'.

Length 294 m; draft 12.9 m.

Type: Ship (hazmat cat A). MMSI: 357405000.

NotesDate/timePositionNaut miles runAvg speedWind from/ knotsBaromVisibWave heightAir tempDewpointWater temp
2014-Apr-18 14:30N 17°53' W 063°44'1616.2
2014-Apr-18 13:29N 18°07' W 063°36'1715.9
2014-Apr-18 12:26N 18°21' W 063°27'  
2014-Apr-11 01:31N 37°40' W 009°37'1818.5
2014-Apr-11 00:33N 37°47' W 009°17'1818.4
2014-Apr-10 23:33N 37°53' W 008°55'4 4.3
2014-Apr-10 22:33N 37°56' W 008°51'0 0.0
2014-Apr-10 21:31N 37°56' W 008°51'0 0.0
2014-Apr-10 20:31N 37°56' W 008°51'0 0.0
2014-Apr-10 19:31N 37°56' W 008°51'0 0.0
2014-Apr-10 18:31N 37°56' W 008°51'0 0.0
2014-Apr-10 17:31N 37°56' W 008°51'0 0.0
2014-Apr-10 16:28N 37°56' W 008°51'0 0.0
2014-Apr-10 15:31N 37°56' W 008°51'0 0.0
2014-Apr-10 14:31N 37°56' W 008°51'0 0.0
2014-Apr-10 13:31N 37°56' W 008°51'0 0.0
2014-Apr-10 12:31N 37°56' W 008°51'0 0.0
2014-Apr-10 11:31N 37°56' W 008°51'0 0.0
2014-Apr-10 10:31N 37°56' W 008°51'0 0.0
2014-Apr-10 09:31N 37°56' W 008°51'0 0.0
2014-Apr-10 08:31N 37°56' W 008°51'0 0.0
2014-Apr-10 07:31N 37°56' W 008°51'0 0.0
2014-Apr-10 06:31N 37°56' W 008°51'1 1.0
2014-Apr-10 05:33N 37°55' W 008°51'8 7.8
2014-Apr-10 04:33N 37°48' W 008°55'1918.9
2014-Apr-10 03:33N 37°30' W 009°03'2320.2
2014-Apr-10 02:25N 37°10' W 009°16'3516.6
2014-Apr-10 00:20N 36°40' W 008°54'1620.4
2014-Apr-09 23:33N 36°34' W 008°36'2121.1
2014-Apr-09 22:33N 36°26' W 008°11'2121.0
2014-Apr-09 21:33N 36°20' W 007°47'2221.2
2014-Apr-09 20:32N 36°14' W 007°21'8520.5
2014-Apr-09 16:23N 35°58' W 005°38'1416.4
2014-Apr-09 15:33N 36°01' W 005°21'1918.7
2014-Apr-09 14:32N 36°04' W 004°58'22720.6
2014-Apr-09 03:33N 37°31' W 000°37'2821.6
2014-Apr-09 02:16N 37°54' W 000°16'2021.7
2014-Apr-09 01:19N 38°11' W 000°02'  

Dump ship's entire track history

sailing weather and tide predictions

MSC Poh Lin — H8FC — position and weather